Time;durP1;ratioP1;P1;durP2;ratioP2;P2;SDS_P1;SDS_P2;PMS_P1;PMS_P2;Temp;Humidity;BMP_temperature;BMP_pressure;BME280_temperature;BME280_humidity;BME280_pressure;Samples;Min_cycle;Max_cycle;Signal;HPM_P1;HPM_P2
2021/03/07 00:02:25;;;;;;;10.27;5.70;;;0.70;99.90;;;;;;5091928;28;20379;-71
2021/03/07 00:04:51;;;;;;;9.20;4.97;;;0.70;99.90;;;;;;5090445;28;20020;-70
2021/03/07 00:07:17;;;;;;;11.65;5.18;;;0.70;99.90;;;;;;5091673;28;20028;-70
2021/03/07 00:09:42;;;;;;;11.35;4.93;;;0.70;99.90;;;;;;5091748;28;20024;-70
2021/03/07 00:12:08;;;;;;;13.23;5.20;;;0.70;99.90;;;;;;5091206;28;20064;-71
2021/03/07 00:14:34;;;;;;;5.22;4.18;;;0.60;99.90;;;;;;5091413;28;20099;-71
2021/03/07 00:17:01;;;;;;;8.40;4.78;;;0.60;99.90;;;;;;5091273;28;20027;-71
2021/03/07 00:19:26;;;;;;;14.75;5.65;;;0.60;99.90;;;;;;5092419;28;20062;-70
2021/03/07 00:21:52;;;;;;;13.07;8.25;;;0.50;99.90;;;;;;5094775;28;20048;-70
2021/03/07 00:24:18;;;;;;;14.38;7.20;;;0.50;99.90;;;;;;5097164;28;20418;-70
2021/03/07 00:26:44;;;;;;;11.65;6.88;;;0.50;99.90;;;;;;5096937;28;20089;-71
2021/03/07 00:29:10;;;;;;;10.40;6.68;;;0.50;99.90;;;;;;5094738;28;20059;-72
2021/03/07 00:31:35;;;;;;;10.52;6.28;;;0.40;99.90;;;;;;5108682;28;20023;-71
2021/03/07 00:34:01;;;;;;;10.05;6.93;;;0.40;99.90;;;;;;5114979;28;20479;-70
2021/03/07 00:36:28;;;;;;;7.90;6.13;;;0.40;99.90;;;;;;5111857;28;20469;-71
2021/03/07 00:38:54;;;;;;;14.07;6.70;;;0.40;99.90;;;;;;5095011;28;20036;-70
2021/03/07 00:41:19;;;;;;;11.25;5.75;;;0.40;99.90;;;;;;5094344;28;20116;-70
2021/03/07 00:43:45;;;;;;;15.20;6.10;;;0.30;99.90;;;;;;5094609;28;20024;-70
2021/03/07 00:46:11;;;;;;;12.82;5.50;;;0.40;99.90;;;;;;5094344;28;20527;-70
2021/03/07 00:48:36;;;;;;;19.92;6.22;;;0.30;99.90;;;;;;5094057;28;20028;-70
2021/03/07 00:51:02;;;;;;;7.03;5.45;;;0.30;99.90;;;;;;5094166;28;20055;-70
2021/03/07 00:53:27;;;;;;;11.88;6.53;;;0.30;99.90;;;;;;5093672;28;20020;-70
2021/03/07 00:55:53;;;;;;;10.13;6.22;;;0.30;99.90;;;;;;5094105;28;20066;-70
2021/03/07 00:58:19;;;;;;;7.47;5.60;;;0.30;99.90;;;;;;5094077;28;20012;-70
2021/03/07 01:00:46;;;;;;;9.30;5.40;;;0.30;99.90;;;;;;5093561;28;20101;-71
2021/03/07 01:03:13;;;;;;;7.90;5.57;;;0.30;99.90;;;;;;5094069;28;20090;-71
2021/03/07 01:05:40;;;;;;;8.63;6.00;;;0.20;99.90;;;;;;5094465;28;20020;-71
2021/03/07 01:08:07;;;;;;;10.95;6.20;;;0.20;99.90;;;;;;5093263;28;20028;-71
2021/03/07 01:10:39;;;;;;;14.40;6.63;;;0.20;99.90;;;;;;5100407;28;20083;-71
2021/03/07 01:13:11;;;;;;;7.55;5.68;;;0.20;99.90;;;;;;5111610;28;20016;-71
2021/03/07 01:15:37;;;;;;;8.68;6.10;;;0.30;99.90;;;;;;5114438;28;20080;-71
2021/03/07 01:18:04;;;;;;;13.25;7.38;;;0.20;99.90;;;;;;5115678;28;20028;-70
2021/03/07 01:20:29;;;;;;;10.77;7.75;;;0.30;99.90;;;;;;5096511;28;20118;-70
2021/03/07 01:22:56;;;;;;;13.73;8.63;;;0.30;99.90;;;;;;5112235;28;20028;-69
2021/03/07 01:25:26;;;;;;;10.52;8.38;;;0.30;99.90;;;;;;5094212;28;20028;-69
2021/03/07 01:27:52;;;;;;;20.13;9.70;;;0.30;99.90;;;;;;5093756;28;20031;-70
2021/03/07 01:30:21;;;;;;;20.10;10.02;;;0.30;99.90;;;;;;5100608;28;20111;-70
2021/03/07 01:32:47;;;;;;;11.80;8.95;;;0.40;99.90;;;;;;5099657;28;20414;-71
2021/03/07 01:35:13;;;;;;;12.52;9.00;;;0.40;99.90;;;;;;5093460;28;20020;-70
2021/03/07 01:37:39;;;;;;;15.75;9.82;;;0.40;99.90;;;;;;5093071;28;20078;-70
2021/03/07 01:40:11;;;;;;;16.85;9.80;;;0.40;99.90;;;;;;5093103;28;20036;-71
2021/03/07 01:42:44;;;;;;;16.95;9.95;;;0.40;99.90;;;;;;5093005;28;20032;-71
2021/03/07 01:45:11;;;;;;;11.32;8.23;;;0.40;99.90;;;;;;5093616;28;20034;-71
2021/03/07 01:47:42;;;;;;;12.43;8.73;;;0.40;99.90;;;;;;5103074;28;20073;-71
2021/03/07 01:50:09;;;;;;;12.93;8.30;;;0.40;99.90;;;;;;5095905;28;20028;-71
2021/03/07 01:52:35;;;;;;;14.32;8.60;;;0.40;99.90;;;;;;5093340;28;20024;-70
2021/03/07 01:55:00;;;;;;;13.20;9.13;;;0.40;99.90;;;;;;5093053;28;20021;-70
2021/03/07 01:57:28;;;;;;;11.52;7.53;;;0.50;99.90;;;;;;5092656;28;20525;-71
2021/03/07 02:00:00;;;;;;;11.25;7.18;;;0.50;99.90;;;;;;5092808;28;20028;-69
2021/03/07 02:02:25;;;;;;;18.10;6.72;;;0.50;99.90;;;;;;5093177;28;20385;-70
2021/03/07 02:04:51;;;;;;;8.75;7.35;;;0.50;99.90;;;;;;5091998;28;20050;-69
2021/03/07 02:07:16;;;;;;;10.50;5.93;;;0.50;99.90;;;;;;5093215;28;20825;-70
2021/03/07 02:09:43;;;;;;;12.70;5.75;;;0.40;99.90;;;;;;5093217;28;20032;-71
2021/03/07 02:12:09;;;;;;;15.63;6.43;;;0.50;99.90;;;;;;5092052;28;20397;-69
2021/03/07 02:14:36;;;;;;;14.85;6.57;;;0.40;99.90;;;;;;5092924;28;20020;-70
2021/03/07 02:17:03;;;;;;;13.63;6.43;;;0.40;99.90;;;;;;5092636;28;20024;-70
2021/03/07 02:19:37;;;;;;;9.60;6.00;;;0.30;99.90;;;;;;5091980;28;20012;-71
2021/03/07 02:22:07;;;;;;;7.95;5.85;;;0.40;99.90;;;;;;5104970;28;20061;-70
2021/03/07 02:24:33;;;;;;;6.25;5.47;;;0.30;99.90;;;;;;5093844;28;20537;-69
2021/03/07 02:27:00;;;;;;;6.85;5.25;;;0.30;99.90;;;;;;5091844;28;20103;-71
2021/03/07 02:29:26;;;;;;;6.50;4.72;;;0.30;99.90;;;;;;5092585;28;20028;-70
2021/03/07 02:31:57;;;;;;;5.35;4.88;;;0.20;99.90;;;;;;5091743;28;20460;-71
2021/03/07 02:34:35;;;;;;;8.73;4.95;;;0.20;99.90;;;;;;5092296;28;20376;-71
2021/03/07 02:37:06;;;;;;;5.18;4.25;;;0.10;99.90;;;;;;5092458;28;20034;-71
2021/03/07 02:39:34;;;;;;;4.40;4.00;;;0.10;99.90;;;;;;5091636;28;20028;-71
2021/03/07 02:42:21;;;;;;;4.88;4.07;;;0.10;99.90;;;;;;5091671;28;20111;-71
2021/03/07 02:44:56;;;;;;;5.30;4.80;;;0.00;99.90;;;;;;5091681;28;20039;-69
2021/03/07 02:47:23;;;;;;;4.68;4.18;;;0.10;99.90;;;;;;5091994;28;20032;-70
2021/03/07 02:49:50;;;;;;;4.53;3.78;;;0.00;99.90;;;;;;5092252;28;20125;-70
2021/03/07 02:52:17;;;;;;;4.45;4.03;;;0.00;99.90;;;;;;5092551;28;20034;-71
2021/03/07 02:54:44;;;;;;;4.13;3.35;;;0.00;99.90;;;;;;5091920;28;20103;-70
2021/03/07 02:57:11;;;;;;;3.88;3.55;;;-0.10;99.90;;;;;;5092010;28;20031;-70
2021/03/07 02:59:39;;;;;;;4.38;3.65;;;-0.10;99.90;;;;;;5105578;28;20058;-69
2021/03/07 03:02:06;;;;;;;3.60;3.30;;;-0.20;99.90;;;;;;5091612;28;20158;-70
2021/03/07 03:04:38;;;;;;;4.20;3.60;;;-0.20;99.90;;;;;;5092128;28;20076;-70
2021/03/07 03:07:07;;;;;;;3.92;3.53;;;-0.20;99.90;;;;;;5091598;28;20027;-71
2021/03/07 03:09:34;;;;;;;6.93;4.18;;;-0.20;99.90;;;;;;5092275;28;20020;-71
2021/03/07 03:12:00;;;;;;;3.78;3.42;;;-0.20;99.90;;;;;;5091723;28;20047;-70
2021/03/07 03:14:26;;;;;;;6.35;4.68;;;-0.20;99.90;;;;;;5091182;28;20024;-69
2021/03/07 03:16:56;;;;;;;4.20;3.42;;;-0.30;99.90;;;;;;5092133;28;20081;-69
2021/03/07 03:19:24;;;;;;;4.82;3.90;;;-0.30;99.90;;;;;;5092278;28;20020;-70
2021/03/07 03:21:50;;;;;;;5.15;3.97;;;-0.30;99.90;;;;;;5104817;28;20517;-69
2021/03/07 03:24:16;;;;;;;3.80;3.45;;;-0.30;99.90;;;;;;5095188;28;20030;-70
2021/03/07 03:26:42;;;;;;;4.40;4.00;;;-0.30;99.90;;;;;;5091272;28;20030;-72
2021/03/07 03:29:07;;;;;;;7.85;4.00;;;-0.30;99.90;;;;;;5090867;28;20028;-71
2021/03/07 03:31:35;;;;;;;5.22;3.90;;;-0.30;99.90;;;;;;5091884;28;20510;-70
2021/03/07 03:34:02;;;;;;;7.35;4.40;;;-0.40;99.90;;;;;;5091025;28;20046;-69
2021/03/07 03:36:29;;;;;;;5.57;4.10;;;-0.40;99.90;;;;;;5089979;28;20016;-71
2021/03/07 03:39:00;;;;;;;4.35;3.80;;;-0.40;99.90;;;;;;5090911;28;20041;-70
2021/03/07 03:41:31;;;;;;;4.88;4.38;;;-0.30;99.90;;;;;;5090932;28;20123;-70
2021/03/07 03:43:58;;;;;;;4.80;4.30;;;-0.30;99.90;;;;;;5089948;28;20107;-70
2021/03/07 03:46:26;;;;;;;6.30;4.97;;;-0.30;99.90;;;;;;5093296;28;20028;-70
2021/03/07 03:48:55;;;;;;;6.03;4.38;;;-0.20;99.90;;;;;;5101682;28;20028;-70
2021/03/07 03:51:23;;;;;;;5.10;4.60;;;-0.20;99.90;;;;;;5089984;28;20028;-69
2021/03/07 03:53:51;;;;;;;5.22;3.30;;;-0.10;99.90;;;;;;5093133;28;20469;-70
2021/03/07 03:56:20;;;;;;;3.10;2.80;;;0.00;99.90;;;;;;5109122;28;20425;-70
2021/03/07 03:58:48;;;;;;;3.95;2.17;;;0.00;99.90;;;;;;5095538;28;20020;-70
2021/03/07 04:01:17;;;;;;;3.70;2.67;;;0.00;99.90;;;;;;5095277;28;20121;-70
2021/03/07 04:03:47;;;;;;;2.80;2.60;;;0.00;99.90;;;;;;5094412;28;20027;-70
2021/03/07 04:06:13;;;;;;;3.17;2.85;;;0.10;99.90;;;;;;5095367;28;20024;-69
2021/03/07 04:08:38;;;;;;;2.38;2.17;;;0.10;99.90;;;;;;5095071;28;20425;-70
2021/03/07 04:11:04;;;;;;;3.08;2.78;;;0.10;99.90;;;;;;5094367;28;20028;-70
2021/03/07 04:13:32;;;;;;;5.05;3.33;;;0.10;99.90;;;;;;5094921;28;20161;-70
2021/03/07 04:15:57;;;;;;;3.63;3.03;;;0.20;99.90;;;;;;5094914;28;20031;-70
2021/03/07 04:18:25;;;;;;;2.90;2.65;;;0.20;99.90;;;;;;5094509;28;20021;-70
2021/03/07 04:20:51;;;;;;;3.53;2.97;;;0.20;99.90;;;;;;5097173;28;20028;-71
2021/03/07 04:23:23;;;;;;;2.78;2.58;;;0.30;99.90;;;;;;5107398;27;20079;-70
2021/03/07 04:25:48;;;;;;;6.55;3.13;;;0.30;99.90;;;;;;5094125;28;20491;-69
2021/03/07 04:28:14;;;;;;;4.15;2.70;;;0.40;99.90;;;;;;5095161;28;20032;-70
2021/03/07 04:30:41;;;;;;;5.13;3.25;;;0.40;99.90;;;;;;5095086;28;20111;-70
2021/03/07 04:33:07;;;;;;;3.75;3.40;;;0.40;99.90;;;;;;5094188;28;20103;-71
2021/03/07 04:35:34;;;;;;;4.15;3.75;;;0.50;99.90;;;;;;5095187;28;20028;-70
2021/03/07 04:38:02;;;;;;;3.92;3.45;;;0.50;99.90;;;;;;5094568;28;20020;-71
2021/03/07 04:40:29;;;;;;;4.68;4.20;;;0.50;99.90;;;;;;5094126;28;20081;-70
2021/03/07 04:42:55;;;;;;;4.15;3.75;;;0.60;99.90;;;;;;5094364;28;20452;-70
2021/03/07 04:45:21;;;;;;;6.30;4.60;;;0.70;99.90;;;;;;5094711;28;20475;-70
2021/03/07 04:47:47;;;;;;;4.65;4.25;;;0.70;99.90;;;;;;5093924;28;20493;-70
2021/03/07 04:50:13;;;;;;;10.48;6.63;;;0.70;99.90;;;;;;5094231;28;20115;-70
2021/03/07 04:52:40;;;;;;;11.57;8.38;;;0.70;99.90;;;;;;5094178;28;20108;-70
2021/03/07 04:55:06;;;;;;;7.88;7.07;;;0.90;99.90;;;;;;5094118;28;20020;-70
2021/03/07 04:57:32;;;;;;;8.70;7.90;;;0.90;99.90;;;;;;5094778;28;20106;-70
2021/03/07 04:59:57;;;;;;;9.50;8.50;;;1.00;99.90;;;;;;5094447;28;20140;-70
2021/03/07 05:02:23;;;;;;;13.98;7.95;;;1.00;99.90;;;;;;5094749;28;20452;-70
2021/03/07 05:04:48;;;;;;;17.73;10.20;;;1.10;99.90;;;;;;5094091;28;20658;-70
2021/03/07 05:07:14;;;;;;;12.15;9.85;;;1.10;99.90;;;;;;5095521;28;20023;-70
2021/03/07 05:09:40;;;;;;;14.02;11.13;;;1.10;99.90;;;;;;5094393;28;20020;-71
2021/03/07 05:12:05;;;;;;;10.82;6.43;;;1.20;99.90;;;;;;5093822;28;20020;-69
2021/03/07 05:14:31;;;;;;;10.85;7.43;;;1.30;99.90;;;;;;5093468;28;20024;-70
2021/03/07 05:16:59;;;;;;;7.13;6.43;;;1.30;99.90;;;;;;5094170;28;20470;-71
2021/03/07 05:19:24;;;;;;;7.30;5.97;;;1.20;99.90;;;;;;5094152;28;20063;-70
2021/03/07 05:21:50;;;;;;;6.78;5.60;;;1.20;99.90;;;;;;5103607;28;20124;-71
2021/03/07 05:24:15;;;;;;;7.20;6.45;;;1.20;99.90;;;;;;5097376;28;20024;-70
2021/03/07 05:26:41;;;;;;;9.30;7.20;;;1.20;99.90;;;;;;5093954;28;20047;-70
2021/03/07 05:29:06;;;;;;;11.45;9.25;;;1.20;99.90;;;;;;5092714;28;20482;-70
2021/03/07 05:31:32;;;;;;;13.35;10.50;;;1.20;99.90;;;;;;5093736;28;20020;-70
2021/03/07 05:33:57;;;;;;;11.73;9.88;;;1.30;99.90;;;;;;5093668;28;20058;-70
2021/03/07 05:36:26;;;;;;;11.55;8.63;;;1.20;99.90;;;;;;5092985;28;20471;-70
2021/03/07 05:38:52;;;;;;;10.70;8.65;;;1.30;99.90;;;;;;5093536;28;20024;-70
2021/03/07 05:41:21;;;;;;;9.43;8.23;;;1.30;99.90;;;;;;5093315;28;20368;-70
2021/03/07 05:43:48;;;;;;;9.60;8.60;;;1.30;99.90;;;;;;5092950;28;20111;-70
2021/03/07 05:46:16;;;;;;;17.08;9.82;;;1.30;99.90;;;;;;5093401;28;20102;-70
2021/03/07 05:48:42;;;;;;;11.00;10.00;;;1.30;99.90;;;;;;5093344;28;20017;-70
2021/03/07 05:51:17;;;;;;;12.05;9.10;;;1.30;99.90;;;;;;5092965;28;20020;-70
2021/03/07 05:53:48;;;;;;;16.25;9.90;;;1.40;99.90;;;;;;5093413;28;20484;-70
2021/03/07 05:56:14;;;;;;;14.07;9.30;;;1.40;99.90;;;;;;5092558;28;20050;-70
2021/03/07 05:58:40;;;;;;;13.50;9.63;;;1.40;99.90;;;;;;5092973;28;20519;-71
2021/03/07 06:01:06;;;;;;;13.43;10.00;;;1.40;99.90;;;;;;5092485;28;20512;-71
2021/03/07 06:03:32;;;;;;;15.93;9.55;;;1.50;99.90;;;;;;5092354;28;20012;-71
2021/03/07 06:05:57;;;;;;;14.85;10.13;;;1.40;99.90;;;;;;5092706;28;20032;-71
2021/03/07 06:08:23;;;;;;;15.23;10.48;;;1.50;99.90;;;;;;5092790;28;20420;-71
2021/03/07 06:10:49;;;;;;;13.05;10.00;;;1.50;99.90;;;;;;5091950;28;20103;-70
2021/03/07 06:13:16;;;;;;;12.18;9.32;;;1.60;99.90;;;;;;5107026;28;20444;-70
2021/03/07 06:15:49;;;;;;;13.68;10.48;;;1.60;99.90;;;;;;5092947;28;20020;-70
2021/03/07 06:18:24;;;;;;;9.52;8.52;;;1.60;99.90;;;;;;5091335;28;20024;-70
2021/03/07 06:20:53;;;;;;;9.52;8.57;;;1.60;99.90;;;;;;5094316;28;20046;-70
2021/03/07 06:23:34;;;;;;;14.77;10.88;;;1.60;99.90;;;;;;5103912;28;20024;-70
2021/03/07 06:26:08;;;;;;;;;;;1.60;99.90;;;;;;5092238;28;20106;-70
2021/03/07 06:28:34;;;;;;;10.10;8.88;;;1.60;99.90;;;;;;5092880;28;19965;-70
2021/03/07 06:30:59;;;;;;;11.65;9.68;;;1.70;99.90;;;;;;5091628;28;20435;-70
2021/03/07 06:33:37;;;;;;;15.75;10.80;;;1.70;99.90;;;;;;5092588;28;20137;-70
2021/03/07 06:36:22;;;;;;;12.27;10.52;;;1.70;99.90;;;;;;5092180;28;20675;-69
2021/03/07 06:38:54;;;;;;;15.52;10.13;;;1.80;99.90;;;;;;5092153;28;20024;-70
2021/03/07 06:41:24;;;;;;;16.38;10.38;;;1.80;99.90;;;;;;5092397;28;20369;-71
2021/03/07 06:43:51;;;;;;;18.33;11.45;;;1.80;99.90;;;;;;5092300;28;20476;-70
2021/03/07 06:46:30;;;;;;;12.20;9.38;;;1.90;99.90;;;;;;5091656;28;20430;-70
2021/03/07 06:48:57;;;;;;;14.37;9.43;;;1.90;99.90;;;;;;5095058;28;20028;-70
2021/03/07 06:51:31;;;;;;;13.25;8.85;;;1.90;99.90;;;;;;5091930;28;20372;-71
2021/03/07 06:54:16;;;;;;;14.80;9.20;;;1.90;99.90;;;;;;5095960;28;20027;-70
2021/03/07 06:56:46;;;;;;;11.90;9.13;;;1.90;99.90;;;;;;5095447;28;20090;-70
2021/03/07 06:59:22;;;;;;;20.05;10.23;;;2.00;99.90;;;;;;5107271;28;20058;-71
2021/03/07 07:01:51;;;;;;;10.52;9.45;;;2.00;99.90;;;;;;5108688;28;20524;-71
2021/03/07 07:04:17;;;;;;;14.15;9.50;;;2.00;99.90;;;;;;5108465;28;20039;-69
2021/03/07 07:06:59;;;;;;;14.18;9.32;;;2.10;99.90;;;;;;5107977;28;20042;-70
2021/03/07 07:09:25;;;;;;;11.30;9.35;;;2.10;99.90;;;;;;5105886;28;20027;-70
2021/03/07 07:11:50;;;;;;;9.73;8.68;;;2.10;99.90;;;;;;5107012;28;20129;-70
2021/03/07 07:14:30;;;;;;;11.95;10.13;;;2.20;99.90;;;;;;5100169;28;20039;-70
2021/03/07 07:16:57;;;;;;;12.77;10.38;;;2.20;99.90;;;;;;5110361;28;20169;-70
2021/03/07 07:19:23;;;;;;;10.15;9.15;;;2.20;99.90;;;;;;5111975;28;20031;-69
2021/03/07 07:21:49;;;;;;;11.75;9.38;;;2.30;99.90;;;;;;5110388;28;20031;-69
2021/03/07 07:24:17;;;;;;;13.48;9.60;;;2.30;99.90;;;;;;5092611;28;20052;-70
2021/03/07 07:26:45;;;;;;;13.55;10.05;;;2.30;99.90;;;;;;5093504;28;20467;-70
2021/03/07 07:29:11;;;;;;;13.82;11.27;;;2.40;99.90;;;;;;5098034;28;20047;-69
2021/03/07 07:31:48;;;;;;;13.57;11.07;;;2.40;99.90;;;;;;5105526;28;20471;-69
2021/03/07 07:34:22;;;;;;;13.98;10.30;;;1.90;99.90;;;;;;5100751;28;20026;-70
2021/03/07 07:37:06;;;;;;;14.32;10.98;;;2.50;99.90;;;;;;5101735;28;20114;-71
2021/03/07 07:39:40;;;;;;;15.38;11.35;;;2.50;99.90;;;;;;5101745;28;20031;-70
2021/03/07 07:42:24;;;;;;;14.60;11.25;;;2.60;99.90;;;;;;5109872;27;20453;-70
2021/03/07 07:44:52;;;;;;;12.80;9.88;;;2.60;99.90;;;;;;5104019;28;20055;-71
2021/03/07 07:47:18;;;;;;;12.20;9.68;;;2.70;99.90;;;;;;5102659;28;20028;-71
2021/03/07 07:49:49;;;;;;;12.95;10.10;;;2.80;99.90;;;;;;5099063;28;20024;-70
2021/03/07 07:52:23;;;;;;;16.98;10.05;;;2.80;99.90;;;;;;5102904;28;20379;-70
2021/03/07 07:54:55;;;;;;;13.20;11.07;;;2.90;99.90;;;;;;5101330;28;20107;-69
2021/03/07 07:57:33;;;;;;;13.23;9.75;;;3.00;99.90;;;;;;5093522;28;20032;-70
2021/03/07 08:00:03;;;;;;;12.85;10.13;;;3.10;99.90;;;;;;5096209;28;20053;-70
2021/03/07 08:02:47;;;;;;;16.13;10.57;;;3.20;99.90;;;;;;5101238;28;20028;-69
2021/03/07 08:05:41;;;;;;;22.10;10.68;;;3.30;99.90;;;;;;5102615;28;20024;-69
2021/03/07 08:08:11;;;;;;;13.82;11.02;;;3.50;99.90;;;;;;5106350;28;20034;-70
2021/03/07 08:10:39;;;;;;;13.73;11.30;;;3.50;99.90;;;;;;5109268;28;20111;-69
2021/03/07 08:13:12;;;;;;;16.73;9.63;;;3.60;99.90;;;;;;5112068;28;20026;-70
2021/03/07 08:15:51;;;;;;;16.02;12.82;;;3.70;99.90;;;;;;5110826;28;20402;-71
2021/03/07 08:18:19;;;;;;;17.30;10.95;;;3.80;99.90;;;;;;5105920;28;20020;-70
2021/03/07 08:20:47;;;;;;;12.85;9.70;;;3.90;99.90;;;;;;5110407;28;20397;-70
2021/03/07 08:23:18;;;;;;;12.10;9.57;;;3.90;99.90;;;;;;5112196;28;20455;-73
2021/03/07 08:25:50;;;;;;;12.23;9.50;;;4.00;99.90;;;;;;5113065;27;20035;-73
2021/03/07 08:28:31;;;;;;;14.27;10.15;;;4.10;99.90;;;;;;5102184;28;20099;-73
2021/03/07 08:31:02;;;;;;;;;;;4.20;99.90;;;;;;5103156;28;20477;-73
2021/03/07 08:33:32;;;;;;;12.48;9.32;;;4.30;99.90;;;;;;5103952;28;19907;-74
2021/03/07 08:36:21;;;;;;;11.80;9.20;;;4.40;99.90;;;;;;5106960;28;20042;-73
2021/03/07 08:38:50;;;;;;;13.10;8.93;;;4.50;99.90;;;;;;5107779;28;20472;-74
2021/03/07 08:41:21;;;;;;;12.75;8.80;;;4.60;99.90;;;;;;5100213;28;20103;-74
2021/03/07 08:43:57;;;;;;;12.00;8.70;;;4.80;99.90;;;;;;5103025;28;20024;-73
2021/03/07 08:46:43;;;;;;;16.38;8.95;;;4.80;99.90;;;;;;5101202;28;20421;-73
2021/03/07 08:49:12;;;;;;;11.88;9.38;;;5.00;99.90;;;;;;5104349;28;20372;-73
2021/03/07 08:51:44;;;;;;;11.90;9.07;;;5.00;99.90;;;;;;5100989;28;20024;-73
2021/03/07 08:54:12;;;;;;;10.30;7.80;;;5.20;99.90;;;;;;5109708;28;20069;-73
2021/03/07 08:56:42;;;;;;;9.68;7.28;;;5.20;99.90;;;;;;5102250;28;20533;-73
2021/03/07 08:59:09;;;;;;;10.33;8.13;;;5.30;99.90;;;;;;5097799;28;20021;-72
2021/03/07 09:01:35;;;;;;;13.80;7.40;;;5.40;99.90;;;;;;5101370;28;20138;-72
2021/03/07 09:04:09;;;;;;;13.45;7.50;;;5.40;99.90;;;;;;5106034;28;20425;-73
2021/03/07 09:06:39;;;;;;;8.00;6.30;;;5.50;99.90;;;;;;5102395;28;20422;-72
2021/03/07 09:09:05;;;;;;;10.68;7.35;;;5.50;99.90;;;;;;5104961;28;20032;-73
2021/03/07 09:11:31;;;;;;;8.50;6.63;;;5.60;99.90;;;;;;5099500;28;20059;-73
2021/03/07 09:13:57;;;;;;;10.18;6.72;;;5.60;99.90;;;;;;5097359;28;20043;-73
2021/03/07 09:16:34;;;;;;;8.05;7.03;;;5.70;99.90;;;;;;5099922;28;20535;-72
2021/03/07 09:19:22;;;;;;;7.18;5.93;;;5.70;99.90;;;;;;5104143;28;20034;-71
2021/03/07 09:22:04;;;;;;;6.97;6.00;;;5.70;99.90;;;;;;5109304;28;20092;-74
2021/03/07 09:24:30;;;;;;;8.10;6.47;;;5.80;99.90;;;;;;5095082;28;20038;-74
2021/03/07 09:27:12;;;;;;;6.63;5.65;;;5.80;99.90;;;;;;5095403;28;20479;-73
2021/03/07 09:30:03;;;;;;;7.75;5.22;;;5.90;99.90;;;;;;5105500;28;20027;-72
2021/03/07 09:32:40;;;;;;;8.65;5.25;;;6.00;99.90;;;;;;5092124;28;20387;-74
2021/03/07 09:35:27;;;;;;;8.15;5.95;;;6.10;99.90;;;;;;5102199;28;20042;-70
2021/03/07 09:38:02;;;;;;;7.40;6.22;;;6.10;99.90;;;;;;5102695;28;20021;-75
2021/03/07 09:40:31;;;;;;;7.03;5.60;;;6.10;99.90;;;;;;5107487;28;20052;-72
2021/03/07 09:43:14;;;;;;;6.43;5.30;;;6.20;99.90;;;;;;5108301;28;20024;-73
2021/03/07 09:45:45;;;;;;;6.63;5.72;;;6.30;99.90;;;;;;5092283;28;20108;-72
2021/03/07 09:48:11;;;;;;;8.63;6.53;;;6.30;99.90;;;;;;5092207;28;20023;-73
2021/03/07 09:50:40;;;;;;;8.40;5.20;;;6.40;99.90;;;;;;5100057;28;20096;-73
2021/03/07 09:53:06;;;;;;;6.47;5.40;;;6.30;99.80;;;;;;5102946;28;20106;-73
2021/03/07 09:55:35;;;;;;;6.53;4.97;;;6.40;99.90;;;;;;5101318;28;20104;-73
2021/03/07 09:58:05;;;;;;;7.70;5.72;;;6.50;99.80;;;;;;5098977;28;20094;-74
2021/03/07 10:00:33;;;;;;;9.05;5.03;;;6.60;99.50;;;;;;5105081;27;20075;-74
2021/03/07 10:02:58;;;;;;;5.45;4.60;;;6.60;98.00;;;;;;5096276;28;20108;-73
2021/03/07 10:05:24;;;;;;;6.07;4.63;;;6.70;96.80;;;;;;5095558;28;20125;-74
2021/03/07 10:07:49;;;;;;;5.13;4.63;;;6.60;97.60;;;;;;5096036;28;20024;-73
2021/03/07 10:10:23;;;;;;;4.20;3.78;;;6.70;96.50;;;;;;5095453;28;20031;-74
2021/03/07 10:12:52;;;;;;;5.70;4.57;;;6.60;96.40;;;;;;5098883;28;20043;-73
2021/03/07 10:15:34;;;;;;;5.70;4.30;;;6.50;97.40;;;;;;5090823;28;20517;-74
2021/03/07 10:18:19;;;;;;;5.97;4.57;;;6.40;98.20;;;;;;5090605;28;20586;-73
2021/03/07 10:20:57;;;;;;;5.65;3.80;;;6.40;99.50;;;;;;5107589;28;20070;-73
2021/03/07 10:23:31;;;;;;;9.13;3.80;;;6.40;99.90;;;;;;5109525;28;20020;-73
2021/03/07 10:26:01;;;;;;;6.25;3.90;;;6.40;99.80;;;;;;5093403;28;20535;-74
2021/03/07 10:28:29;;;;;;;5.95;4.00;;;6.40;99.80;;;;;;5093637;28;20027;-73
2021/03/07 10:31:06;;;;;;;10.07;4.80;;;6.50;99.40;;;;;;5091842;28;20548;-73
2021/03/07 10:33:32;;;;;;;6.15;4.65;;;6.50;99.90;;;;;;5093306;28;20372;-73
2021/03/07 10:36:06;;;;;;;5.63;4.43;;;6.60;98.80;;;;;;5092792;28;20495;-73
2021/03/07 10:38:39;;;;;;;10.63;4.50;;;6.30;99.40;;;;;;5093572;28;20035;-73
2021/03/07 10:41:19;;;;;;;5.03;4.18;;;6.40;99.40;;;;;;5092921;28;20039;-73
2021/03/07 10:43:50;;;;;;;4.80;4.40;;;6.40;99.90;;;;;;5093257;28;20064;-74
2021/03/07 10:46:34;;;;;;;6.53;4.97;;;6.30;99.90;;;;;;5106379;28;20043;-73
2021/03/07 10:49:02;;;;;;;6.50;4.20;;;6.50;99.90;;;;;;5092709;28;20028;-73
2021/03/07 10:51:28;;;;;;;5.68;4.85;;;6.50;99.90;;;;;;5102534;28;20792;-74
2021/03/07 10:53:54;;;;;;;4.90;4.00;;;6.70;99.90;;;;;;5092549;28;20047;-72
2021/03/07 10:56:20;;;;;;;6.07;4.63;;;6.80;99.50;;;;;;5108044;28;20035;-73
2021/03/07 10:58:46;;;;;;;4.38;3.95;;;6.60;99.50;;;;;;5103184;28;20028;-73
2021/03/07 11:01:15;;;;;;;4.88;4.00;;;6.50;99.10;;;;;;5092622;28;20050;-74
2021/03/07 11:03:44;;;;;;;5.20;3.80;;;6.60;99.90;;;;;;5096950;28;20015;-73
2021/03/07 11:06:10;;;;;;;5.60;4.10;;;6.80;98.70;;;;;;5094337;28;20444;-74
2021/03/07 11:08:37;;;;;;;5.72;4.15;;;6.70;99.80;;;;;;5097498;28;20020;-73
2021/03/07 11:11:04;;;;;;;5.53;4.63;;;6.70;99.70;;;;;;5106928;28;20032;-73
2021/03/07 11:13:30;;;;;;;8.70;4.30;;;6.70;99.30;;;;;;5097448;28;20112;-72
2021/03/07 11:15:55;;;;;;;4.47;4.07;;;6.70;99.00;;;;;;5103810;28;20048;-72
2021/03/07 11:18:21;;;;;;;6.07;4.30;;;6.60;99.30;;;;;;5099284;28;20026;-74
2021/03/07 11:20:47;;;;;;;3.97;3.47;;;6.80;99.50;;;;;;5107301;28;20138;-76
2021/03/07 11:23:13;;;;;;;3.53;2.90;;;6.80;98.90;;;;;;5104924;28;20036;-74
2021/03/07 11:25:39;;;;;;;3.67;3.30;;;6.80;99.00;;;;;;5094917;28;20032;-74
2021/03/07 11:28:05;;;;;;;5.03;3.65;;;6.90;98.90;;;;;;5091226;28;20024;-73
2021/03/07 11:30:31;;;;;;;3.92;3.15;;;6.90;98.90;;;;;;5096516;28;20086;-74
2021/03/07 11:32:56;;;;;;;6.13;3.15;;;6.90;98.50;;;;;;5091666;28;20483;-74
2021/03/07 11:35:22;;;;;;;6.57;2.95;;;6.90;98.40;;;;;;5093135;28;20028;-74
2021/03/07 11:37:48;;;;;;;4.03;3.08;;;6.90;97.60;;;;;;5092510;28;20456;-73
2021/03/07 11:40:14;;;;;;;3.70;2.92;;;6.90;97.10;;;;;;5104468;28;20024;-74
2021/03/07 11:42:39;;;;;;;3.80;3.50;;;6.60;96.90;;;;;;5091688;28;20096;-73
2021/03/07 11:45:06;;;;;;;3.92;2.78;;;6.70;97.60;;;;;;5096534;28;20113;-74
2021/03/07 11:47:32;;;;;;;4.53;2.28;;;6.80;97.90;;;;;;5099475;28;20028;-73
2021/03/07 11:49:57;;;;;;;4.30;2.42;;;6.70;97.70;;;;;;5091396;28;20356;-75
2021/03/07 11:52:23;;;;;;;2.40;2.13;;;6.80;96.90;;;;;;5093633;28;20024;-76
2021/03/07 11:54:48;;;;;;;2.25;1.80;;;6.80;96.20;;;;;;5091582;28;20027;-74
2021/03/07 11:57:14;;;;;;;2.88;2.15;;;6.60;95.10;;;;;;5091923;28;20020;-75
2021/03/07 11:59:40;;;;;;;5.15;2.90;;;6.70;96.30;;;;;;5091893;28;20020;-75
2021/03/07 12:02:06;;;;;;;4.78;3.72;;;7.00;96.10;;;;;;5090456;28;20082;-75
2021/03/07 12:04:32;;;;;;;4.50;3.25;;;7.20;95.10;;;;;;5091824;28;20028;-75
2021/03/07 12:06:57;;;;;;;3.38;2.90;;;7.40;94.70;;;;;;5105675;28;20031;-75
2021/03/07 12:09:23;;;;;;;4.07;2.88;;;7.40;94.30;;;;;;5091336;28;20084;-75
2021/03/07 12:11:49;;;;;;;11.48;10.57;;;7.50;92.60;;;;;;5093031;28;20430;-75
2021/03/07 12:14:15;;;;;;;6.13;5.72;;;7.50;92.70;;;;;;5103352;28;20023;-76
2021/03/07 12:16:40;;;;;;;2.50;1.98;;;7.50;91.70;;;;;;5115570;28;20370;-76
2021/03/07 12:19:06;;;;;;;3.53;3.03;;;7.30;90.90;;;;;;5097030;28;20111;-75
2021/03/07 12:21:34;;;;;;;7.00;2.72;;;7.10;92.50;;;;;;5098852;28;20039;-76
2021/03/07 12:24:00;;;;;;;3.45;3.13;;;7.00;94.90;;;;;;5093322;28;20349;-74
2021/03/07 12:26:26;;;;;;;3.03;2.70;;;7.00;95.00;;;;;;5094504;28;20027;-75
2021/03/07 12:28:51;;;;;;;5.95;4.78;;;6.90;94.20;;;;;;5093747;28;20062;-75
2021/03/07 12:31:17;;;;;;;6.25;3.80;;;6.80;94.40;;;;;;5106724;28;20028;-76
2021/03/07 12:33:42;;;;;;;4.53;2.88;;;6.80;95.70;;;;;;5097321;28;20564;-76
2021/03/07 12:36:08;;;;;;;6.88;2.38;;;6.80;95.40;;;;;;5100827;28;20079;-76
2021/03/07 12:38:34;;;;;;;2.40;2.20;;;6.60;95.50;;;;;;5112754;28;20019;-75
2021/03/07 12:40:59;;;;;;;18.25;10.20;;;6.80;96.30;;;;;;5100303;28;20028;-75
2021/03/07 12:43:25;;;;;;;3.75;3.33;;;6.60;96.70;;;;;;5098723;28;20039;-76
2021/03/07 12:45:51;;;;;;;4.25;2.10;;;6.70;97.30;;;;;;5097022;28;20054;-74
2021/03/07 12:48:16;;;;;;;2.80;2.40;;;6.60;97.10;;;;;;5101732;28;20479;-75
2021/03/07 12:50:42;;;;;;;6.05;3.35;;;6.50;96.60;;;;;;5101397;28;20038;-75
2021/03/07 12:53:07;;;;;;;2.60;2.30;;;6.40;97.70;;;;;;5094625;28;20123;-79
2021/03/07 12:55:33;;;;;;;6.68;2.42;;;6.40;98.00;;;;;;5105045;28;20048;-75
2021/03/07 12:57:59;;;;;;;3.13;1.67;;;6.30;98.40;;;;;;5093803;28;20056;-78
2021/03/07 13:00:26;;;;;;;2.33;1.65;;;6.30;98.80;;;;;;5110783;28;20044;-76